Time;durP1;ratioP1;P1;durP2;ratioP2;P2;SDS_P1;SDS_P2;PMS_P1;PMS_P2;Temp;Humidity;BMP_temperature;BMP_pressure;BME280_temperature;BME280_humidity;BME280_pressure;Samples;Min_cycle;Max_cycle;Signal;HPM_P1;HPM_P2
2022/05/08 00:01:37;;;;;;;;;;;14.50;99.90;;;;;;5028204;28;19925;-72
2022/05/08 00:04:04;;;;;;;;;;;14.50;99.90;;;;;;5027915;28;20024;-72
2022/05/08 00:06:31;;;;;;;;;;;14.40;99.90;;;;;;5046138;28;19947;-72
2022/05/08 00:08:58;;;;;;;;;;;14.30;99.90;;;;;;5048839;28;19931;-72
2022/05/08 00:11:26;;;;;;;;;;;14.20;99.90;;;;;;5051063;28;19927;-72
2022/05/08 00:13:52;;;;;;;;;;;14.10;99.90;;;;;;5044958;28;19943;-72
2022/05/08 00:16:19;;;;;;;;;;;14.00;99.90;;;;;;5046755;28;20023;-74
2022/05/08 00:18:46;;;;;;;;;;;13.90;99.90;;;;;;5046891;28;20269;-72
2022/05/08 00:21:12;;;;;;;;;;;13.80;99.90;;;;;;5046156;28;19947;-72
2022/05/08 00:23:39;;;;;;;;;;;13.70;99.90;;;;;;5045825;28;19963;-72
2022/05/08 00:26:08;;;;;;;;;;;13.70;99.90;;;;;;5048233;28;19931;-72
2022/05/08 00:28:36;;;;;;;;;;;13.50;99.90;;;;;;5048527;28;19970;-72
2022/05/08 00:31:03;;;;;;;;;;;13.40;99.90;;;;;;5034157;28;19931;-73
2022/05/08 00:33:30;;;;;;;;;;;13.30;99.90;;;;;;5044246;28;19924;-74
2022/05/08 00:35:56;;;;;;;;;;;13.20;99.90;;;;;;5051138;28;20002;-74
2022/05/08 00:38:23;;;;;;;;;;;13.10;99.90;;;;;;5023813;28;19924;-75
2022/05/08 00:40:50;;;;;;;;;;;13.00;99.90;;;;;;5038182;28;19929;-74
2022/05/08 00:43:27;;;;;;;;;;;15.10;99.90;;;;;;5053442;28;19947;-73
2022/05/08 00:45:55;;;;;;;;;;;12.90;99.90;;;;;;5041714;28;19925;-74
2022/05/08 00:48:22;;;;;;;;;;;12.90;99.90;;;;;;5045850;28;19924;-75
2022/05/08 00:50:49;;;;;;;;;;;12.80;99.90;;;;;;5047436;28;19927;-73
2022/05/08 00:53:15;;;;;;;;;;;12.90;99.90;;;;;;5044563;28;19920;-74
2022/05/08 00:55:42;;;;;;;;;;;12.90;99.90;;;;;;5045708;28;19925;-74
2022/05/08 00:58:09;;;;;;;;;;;12.80;99.90;;;;;;5056683;28;20166;-73
2022/05/08 01:00:36;;;;;;;;;;;12.90;99.90;;;;;;5049442;28;19925;-73
2022/05/08 01:03:04;;;;;;;;;;;12.80;99.90;;;;;;5029849;28;19924;-71
2022/05/08 01:05:31;;;;;;;;;;;12.80;99.90;;;;;;5045735;28;19928;-71
2022/05/08 01:07:57;;;;;;;;;;;12.80;99.90;;;;;;5048182;28;19931;-72
2022/05/08 01:10:24;;;;;;;;;;;12.80;99.90;;;;;;5033443;28;19998;-71
2022/05/08 01:12:51;;;;;;;;;;;12.80;99.90;;;;;;5043392;28;20020;-71
2022/05/08 01:15:18;;;;;;;;;;;12.70;99.90;;;;;;5043704;28;20522;-71
2022/05/08 01:17:45;;;;;;;;;;;12.70;99.90;;;;;;5043371;28;20025;-73
2022/05/08 01:20:14;;;;;;;;;;;12.70;99.90;;;;;;5045122;28;19990;-71
2022/05/08 01:22:42;;;;;;;;;;;12.60;99.90;;;;;;5027176;28;20356;-72
2022/05/08 01:25:08;;;;;;;;;;;12.60;99.90;;;;;;5044462;28;19925;-72
2022/05/08 01:27:35;;;;;;;;;;;12.60;99.90;;;;;;5049423;28;19924;-72
2022/05/08 01:30:02;;;;;;;;;;;12.50;99.90;;;;;;5046041;28;19925;-73
2022/05/08 01:32:28;;;;;;;;;;;12.50;99.90;;;;;;5027568;28;20002;-72
2022/05/08 01:34:55;;;;;;;;;;;12.50;99.90;;;;;;5045732;28;19993;-72
2022/05/08 01:37:22;;;;;;;;;;;12.40;99.90;;;;;;5044780;28;19932;-72
2022/05/08 01:39:50;;;;;;;;;;;12.40;99.90;;;;;;5041355;28;19932;-73
2022/05/08 01:42:16;;;;;;;;;;;12.40;99.90;;;;;;5044086;28;19920;-72
2022/05/08 01:44:43;;;;;;;;;;;12.40;99.90;;;;;;5043631;28;19951;-72
2022/05/08 01:49:58;;;;;;;;;;;12.40;99.90;;;;;;5048363;28;20017;-72
2022/05/08 01:52:25;;;;;;;;;;;12.40;99.90;;;;;;5051849;28;19964;-72
2022/05/08 01:54:53;;;;;;;;;;;12.40;99.90;;;;;;5048117;28;20372;-73
2022/05/08 01:57:20;;;;;;;;;;;12.40;99.90;;;;;;5050454;28;20000;-73
2022/05/08 01:59:47;;;;;;;;;;;12.40;99.90;;;;;;5050068;28;19980;-72
2022/05/08 02:02:14;;;;;;;;;;;12.30;99.90;;;;;;5048626;28;20401;-71
2022/05/08 02:04:41;;;;;;;;;;;12.30;99.90;;;;;;5047422;28;20346;-71
2022/05/08 02:07:07;;;;;;;;;;;12.30;99.90;;;;;;5048252;28;19973;-71
2022/05/08 02:09:34;;;;;;;;;;;12.30;99.90;;;;;;5048179;28;19928;-71
2022/05/08 02:12:02;;;;;;;;;;;12.30;99.90;;;;;;5048067;28;19932;-72
2022/05/08 02:14:29;;;;;;;;;;;12.30;99.90;;;;;;5027169;28;20400;-72
2022/05/08 02:16:55;;;;;;;;;;;12.30;99.90;;;;;;5054489;28;20377;-72
2022/05/08 02:19:22;;;;;;;;;;;12.30;99.90;;;;;;5048237;28;20373;-72
2022/05/08 02:21:49;;;;;;;;;;;12.30;99.90;;;;;;5048483;28;20015;-71
2022/05/08 02:24:16;;;;;;;;;;;12.30;99.90;;;;;;5048766;28;19956;-72
2022/05/08 02:26:42;;;;;;;;;;;12.30;99.90;;;;;;5048948;28;19924;-72
2022/05/08 02:29:11;;;;;;;;;;;12.30;99.90;;;;;;5058435;28;19925;-73
2022/05/08 02:31:37;;;;;;;;;;;12.30;99.90;;;;;;5029903;28;19921;-73
2022/05/08 02:34:04;;;;;;;;;;;12.30;99.90;;;;;;5049618;28;19925;-73
2022/05/08 02:36:31;;;;;;;;;;;12.30;99.90;;;;;;5047873;28;19994;-73
2022/05/08 02:38:57;;;;;;;;;;;12.30;99.90;;;;;;5051425;28;19951;-73
2022/05/08 02:41:24;;;;;;;;;;;12.30;99.90;;;;;;5049830;28;19924;-73
2022/05/08 02:43:51;;;;;;;;;;;12.30;99.90;;;;;;5047263;28;19929;-73
2022/05/08 02:46:19;;;;;;;;;;;12.30;99.90;;;;;;5047673;28;19929;-73
2022/05/08 02:48:45;;;;;;;;;;;12.30;99.90;;;;;;5048200;28;19925;-73
2022/05/08 02:51:12;;;;;;;;;;;12.30;99.90;;;;;;5048478;28;20378;-73
2022/05/08 02:53:39;;;;;;;;;;;12.30;99.90;;;;;;5046387;28;19925;-72
2022/05/08 02:58:50;;;;;;;;;;;12.30;99.90;;;;;;5064403;28;19945;-72
2022/05/08 03:01:16;;;;;;;;;;;12.30;99.90;;;;;;5051402;28;20016;-72
2022/05/08 03:03:44;;;;;;;;;;;12.20;99.90;;;;;;5047359;28;19928;-73
2022/05/08 03:06:13;;;;;;;;;;;12.20;99.90;;;;;;5049615;28;20374;-73
2022/05/08 03:08:39;;;;;;;;;;;12.10;99.90;;;;;;5053312;28;20036;-72
2022/05/08 03:13:51;;;;;;;;;;;12.10;99.90;;;;;;5028756;28;19920;-73
2022/05/08 03:16:18;;;;;;;;;;;12.00;99.90;;;;;;5047934;28;20026;-73
2022/05/08 03:18:46;;;;;;;;;;;12.00;99.90;;;;;;5049003;28;19964;-72
2022/05/08 03:21:13;;;;;;;;;;;12.00;99.90;;;;;;5031452;28;19920;-71
2022/05/08 03:23:40;;;;;;;;;;;11.80;99.90;;;;;;5044893;28;19928;-72
2022/05/08 03:26:08;;;;;;;;;;;11.80;99.90;;;;;;5048410;28;19936;-72
2022/05/08 03:28:35;;;;;;;;;;;11.60;99.90;;;;;;5029906;28;20397;-71
2022/05/08 03:31:01;;;;;;;;;;;11.70;99.90;;;;;;5047635;28;19940;-71
2022/05/08 03:33:28;;;;;;;;;;;11.60;99.90;;;;;;5047363;28;20027;-71
2022/05/08 03:35:57;;;;;;;;;;;11.50;99.90;;;;;;5048316;28;19970;-71
2022/05/08 03:38:24;;;;;;;;;;;10.90;99.90;;;;;;5047996;28;19928;-73
2022/05/08 03:40:51;;;;;;;;;;;11.40;99.90;;;;;;5049729;28;19985;-72
2022/05/08 03:43:18;;;;;;;;;;;11.30;99.90;;;;;;5044656;28;19928;-72
2022/05/08 03:45:44;;;;;;;;;;;11.30;99.90;;;;;;5033272;28;19925;-73
2022/05/08 03:48:11;;;;;;;;;;;11.30;99.90;;;;;;5046647;28;19947;-73
2022/05/08 03:50:38;;;;;;;;;;;11.20;99.90;;;;;;5045179;28;19951;-72
2022/05/08 03:53:06;;;;;;;;;;;12.20;99.90;;;;;;5042777;28;19928;-72
2022/05/08 03:55:33;;;;;;;;;;;11.10;99.90;;;;;;5046912;28;19949;-73
2022/05/08 03:57:59;;;;;;;;;;;11.10;99.90;;;;;;5044346;28;19986;-73
2022/05/08 04:00:26;;;;;;;;;;;11.10;99.90;;;;;;5040952;28;20422;-73
2022/05/08 04:02:53;;;;;;;;;;;11.10;99.90;;;;;;5024404;28;19924;-73
2022/05/08 04:05:20;;;;;;;;;;;11.10;99.90;;;;;;5046285;28;19921;-73
2022/05/08 04:07:46;;;;;;;;;;;11.00;99.90;;;;;;5046540;28;19934;-72
2022/05/08 04:10:15;;;;;;;;;;;11.10;99.90;;;;;;5045502;28;19935;-73
2022/05/08 04:12:42;;;;;;;;;;;;;;;;;;5045991;28;20078;-73
2022/05/08 04:16:15;;;;;;;;;;;11.00;99.90;;;;;;5046727;28;19952;-72
2022/05/08 04:17:57;;;;;;;;;;;10.90;99.90;;;;;;5046071;28;19924;-73
2022/05/08 04:20:24;;;;;;;;;;;10.90;99.90;;;;;;5049985;28;19927;-72
2022/05/08 04:25:36;;;;;;;;;;;11.00;99.90;;;;;;5048175;28;20038;-72
2022/05/08 04:28:03;;;;;;;;;;;11.00;99.90;;;;;;5039640;28;20393;-73
2022/05/08 04:30:29;;;;;;;;;;;11.00;99.90;;;;;;5044623;28;20280;-73
2022/05/08 04:32:56;;;;;;;;;;;11.00;99.90;;;;;;5044448;28;20255;-73
2022/05/08 04:35:23;;;;;;;;;;;11.10;99.90;;;;;;5044723;28;20010;-73
2022/05/08 04:37:50;;;;;;;;;;;;;;;;;;5042627;28;19932;-73
2022/05/08 04:40:17;;;;;;;;;;;14.80;99.90;;;;;;5043044;28;20015;-73
2022/05/08 04:42:45;;;;;;;;;;;11.30;99.90;;;;;;5043293;28;19978;-74
2022/05/08 04:45:11;;;;;;;;;;;11.40;99.90;;;;;;5043490;28;19924;-74
2022/05/08 04:47:38;;;;;;;;;;;11.40;99.90;;;;;;5034582;28;19987;-74
2022/05/08 04:50:05;;;;;;;;;;;11.50;99.90;;;;;;5046813;28;20022;-74
2022/05/08 04:52:32;;;;;;;;;;;11.50;99.90;;;;;;5044809;28;19932;-74
2022/05/08 04:55:02;;;;;;;;;;;11.60;99.90;;;;;;5045604;28;19965;-74
2022/05/08 04:57:29;;;;;;;;;;;11.60;99.90;;;;;;5045251;28;20373;-72
2022/05/08 04:59:57;;;;;;;;;;;11.70;99.90;;;;;;5045081;28;19932;-72
2022/05/08 05:02:24;;;;;;;;;;;11.70;99.90;;;;;;5028619;28;20100;-72
2022/05/08 05:04:51;;;;;;;;;;;11.70;99.90;;;;;;5045429;28;19920;-72
2022/05/08 05:07:17;;;;;;;;;;;11.70;99.90;;;;;;5045787;28;19994;-73
2022/05/08 05:09:44;;;;;;;;;;;11.70;99.90;;;;;;5044317;28;20005;-72
2022/05/08 05:12:11;;;;;;;;;;;11.70;99.90;;;;;;5046422;28;19929;-73
2022/05/08 05:14:38;;;;;;;;;;;11.70;99.90;;;;;;5049687;28;19924;-73
2022/05/08 05:17:06;;;;;;;;;;;11.70;99.90;;;;;;5043214;28;19994;-72
2022/05/08 05:19:33;;;;;;;;;;;11.70;99.90;;;;;;5048603;28;19928;-72
2022/05/08 05:21:59;;;;;;;;;;;11.70;99.90;;;;;;5048003;28;20353;-72
2022/05/08 05:24:26;;;;;;;;;;;11.80;99.90;;;;;;5044351;28;20369;-71
2022/05/08 05:26:53;;;;;;;;;;;11.90;99.90;;;;;;5050630;28;19928;-72
2022/05/08 05:29:19;;;;;;;;;;;12.00;99.90;;;;;;5044588;28;20023;-71
2022/05/08 05:31:46;;;;;;;;;;;12.00;99.90;;;;;;5044779;28;19925;-72
2022/05/08 05:34:14;;;;;;;;;;;12.10;99.90;;;;;;5048380;28;19929;-72
2022/05/08 05:36:41;;;;;;;;;;;12.30;99.90;;;;;;5052201;28;19932;-72
2022/05/08 05:39:07;;;;;;;;;;;12.30;99.90;;;;;;5049633;28;19920;-72
2022/05/08 05:41:34;;;;;;;;;;;12.30;99.90;;;;;;5046273;28;19932;-72
2022/05/08 05:44:04;;;;;;;;;;;12.30;99.90;;;;;;5054317;28;19928;-70
2022/05/08 05:49:19;;;;;;;;;;;12.70;99.90;;;;;;5048958;28;19927;-71
2022/05/08 05:51:46;;;;;;;;;;;13.10;99.90;;;;;;5049131;28;19927;-72
2022/05/08 05:54:13;;;;;;;;;;;13.60;99.90;;;;;;5048398;28;20359;-72
2022/05/08 05:56:41;;;;;;;;;;;14.40;99.90;;;;;;5048771;28;19920;-72
2022/05/08 05:59:08;;;;;;;;;;;15.40;99.90;;;;;;5049356;28;20023;-72
2022/05/08 06:01:35;;;;;;;;;;;16.30;99.90;;;;;;5048439;28;20352;-72
2022/05/08 06:04:01;;;;;;;;;;;17.10;99.90;;;;;;5047876;28;19920;-72
2022/05/08 06:06:29;;;;;;;;;;;17.90;99.90;;;;;;5048264;28;19924;-73
2022/05/08 06:08:56;;;;;;;;;;;18.50;99.90;;;;;;5051176;28;20333;-73
2022/05/08 06:11:23;;;;;;;;;;;19.20;99.90;;;;;;5047993;28;19944;-73
2022/05/08 06:13:49;;;;;;;;;;;20.20;99.90;;;;;;5051506;28;19967;-73
2022/05/08 06:16:16;;;;;;;;;;;19.90;99.90;;;;;;5048829;28;19932;-73
2022/05/08 06:18:44;;;;;;;;;;;20.30;99.90;;;;;;5053795;28;20519;-73
2022/05/08 06:21:10;;;;;;;;;;;20.50;99.90;;;;;;5047863;28;19921;-73
2022/05/08 06:23:38;;;;;;;;;;;20.60;99.90;;;;;;5047444;28;19936;-73
2022/05/08 06:26:09;;;;;;;;;;;20.40;99.90;;;;;;5049579;28;19928;-73
2022/05/08 06:28:37;;;;;;;;;;;20.50;99.90;;;;;;5049407;28;19930;-73
2022/05/08 06:31:04;;;;;;;;;;;20.90;99.90;;;;;;5049074;28;19965;-74
2022/05/08 06:33:32;;;;;;;;;;;21.50;99.90;;;;;;5026544;28;20464;-74
2022/05/08 06:35:59;;;;;;;;;;;21.60;99.90;;;;;;5046780;28;19980;-74
2022/05/08 06:38:26;;;;;;;;;;;21.00;99.90;;;;;;5046091;28;19928;-74
2022/05/08 06:40:54;;;;;;;;;;;21.80;99.90;;;;;;5044491;28;19973;-74
2022/05/08 06:43:20;;;;;;;;;;;22.20;99.90;;;;;;5041732;28;19977;-74
2022/05/08 06:45:47;;;;;;;;;;;22.30;99.90;;;;;;5043864;28;20432;-75
2022/05/08 06:48:14;;;;;;;;;;;22.90;99.90;;;;;;5029339;28;19921;-74
2022/05/08 06:50:41;;;;;;;;;;;23.10;99.90;;;;;;5049551;28;20505;-74
2022/05/08 06:53:07;;;;;;;;;;;23.10;99.90;;;;;;5043590;28;20107;-74
2022/05/08 06:55:35;;;;;;;;;;;23.50;99.90;;;;;;5027850;28;20388;-75
2022/05/08 06:58:03;;;;;;;;;;;23.90;99.90;;;;;;5047535;28;20198;-74
2022/05/08 07:03:16;;;;;;;;;;;22.90;98.10;;;;;;5044245;28;19924;-74
2022/05/08 07:05:45;;;;;;;;;;;22.00;98.60;;;;;;5050665;28;19932;-74
2022/05/08 07:08:12;;;;;;;;;;;20.50;98.00;;;;;;5051493;28;20366;-74
2022/05/08 07:10:39;;;;;;;;;;;20.30;97.80;;;;;;5050244;28;19924;-74
2022/05/08 07:13:07;;;;;;;;;;;19.40;98.60;;;;;;5044911;28;19952;-74
2022/05/08 07:15:34;;;;;;;;;;;18.80;99.20;;;;;;5045315;28;19933;-74
2022/05/08 07:18:00;;;;;;;;;;;18.10;99.40;;;;;;5048486;28;19932;-74
2022/05/08 07:20:27;;;;;;;;;;;18.00;99.10;;;;;;5046917;28;20126;-74
2022/05/08 07:22:54;;;;;;;;;;;18.30;99.90;;;;;;5041182;28;20385;-74
2022/05/08 07:25:21;;;;;;;;;;;17.20;99.80;;;;;;5045884;28;19936;-75
2022/05/08 07:27:49;;;;;;;;;;;17.00;99.90;;;;;;5047127;28;19925;-75
2022/05/08 07:30:17;;;;;;;;;;;17.00;99.90;;;;;;5052129;28;20125;-75
2022/05/08 07:32:44;;;;;;;;;;;16.80;99.90;;;;;;5043521;28;19933;-75
2022/05/08 07:37:55;;;;;;;;;;;16.60;99.90;;;;;;5028996;28;20312;-74
2022/05/08 07:40:23;;;;;;;;;;;;;;;;;;5045801;28;20326;-73
2022/05/08 07:42:53;;;;;;;;;;;17.10;99.90;;;;;;5044739;28;19975;-74
2022/05/08 07:45:20;;;;;;;;;;;;;;;;;;5055130;28;19981;-73
2022/05/08 07:47:47;;;;;;;;;;;;;;;;;;5056698;28;20027;-74
2022/05/08 07:50:14;;;;;;;;;;;;;;;;;;5057762;28;20332;-74
2022/05/08 07:52:43;;;;;;;;;;;17.50;99.90;;;;;;5061020;28;19925;-74
2022/05/08 07:55:10;;;;;;;;;;;;;;;;;;5049775;28;19925;-73
2022/05/08 07:57:37;;;;;;;;;;;;;;;;;;5046278;28;20321;-73
2022/05/08 08:00:04;;;;;;;;;;;18.90;99.90;;;;;;5044574;28;19928;-74
2022/05/08 08:02:40;;;;;;;;;;;19.10;99.90;;;;;;5048229;28;19921;-74
2022/05/08 08:05:07;;;;;;;;;;;18.90;99.80;;;;;;5048633;28;19925;-74
2022/05/08 08:07:34;;;;;;;;;;;19.20;99.90;;;;;;5050034;28;20011;-74
2022/05/08 08:10:02;;;;;;;;;;;19.30;99.70;;;;;;5048269;28;19921;-75
2022/05/08 08:12:29;;;;;;;;;;;19.40;99.50;;;;;;5045799;28;19928;-73
2022/05/08 08:14:55;;;;;;;;;;;20.20;99.90;;;;;;5044880;28;19987;-74
2022/05/08 08:17:22;;;;;;;;;;;21.00;99.90;;;;;;5044194;28;20331;-75
2022/05/08 08:19:49;;;;;;;;;;;22.40;99.10;;;;;;5043986;28;20393;-75
2022/05/08 08:22:16;;;;;;;;;;;22.60;96.90;;;;;;5024394;28;19924;-74
2022/05/08 08:24:43;;;;;;;;;;;22.20;95.20;;;;;;5039857;28;20239;-75
2022/05/08 08:27:11;;;;;;;;;;;21.50;96.20;;;;;;5036789;28;20313;-75
2022/05/08 08:29:37;;;;;;;;;;;21.00;96.10;;;;;;5044818;28;19924;-74
2022/05/08 08:32:04;;;;;;;;;;;20.30;95.20;;;;;;5043275;28;19928;-74
2022/05/08 08:34:31;;;;;;;;;;;20.00;95.40;;;;;;5039025;28;19929;-73
2022/05/08 08:36:58;;;;;;;;;;;19.70;95.70;;;;;;5041318;28;20214;-74
2022/05/08 08:39:25;;;;;;;;;;;19.30;95.60;;;;;;5033248;28;19933;-73
2022/05/08 08:41:54;;;;;;;;;;;19.50;96.90;;;;;;5039615;28;20114;-73
2022/05/08 08:49:54;;;;;;;;;;;20.80;93.90;;;;;;5037942;28;20361;-75
2022/05/08 08:52:22;;;;;;;;;;;20.40;93.70;;;;;;5037386;28;19925;-74
2022/05/08 08:54:48;;;;;;;;;;;20.30;94.40;;;;;;5043294;28;19996;-74
2022/05/08 08:57:15;;;;;;;;;;;20.30;94.40;;;;;;5042981;28;19921;-74
2022/05/08 08:59:43;;;;;;;;;;;20.30;94.10;;;;;;5040641;28;20364;-74
2022/05/08 09:02:14;;;;;;;;;;;20.30;94.90;;;;;;5019116;28;20337;-74
2022/05/08 09:04:41;;;;;;;;;;;20.40;95.00;;;;;;5023324;28;19921;-74
2022/05/08 09:07:28;;;;;;;;;;;20.30;94.60;;;;;;5051132;28;19932;-72
2022/05/08 09:10:06;;;;;;;;;;;20.00;94.00;;;;;;5054090;28;20279;-72
2022/05/08 09:12:33;;;;;;;;;;;;;;;;;;5044443;28;19928;-73
2022/05/08 09:15:01;;;;;;;;;;;19.40;94.50;;;;;;5040219;28;19998;-73
2022/05/08 09:17:43;;;;;;;;;;;19.50;95.10;;;;;;5038708;28;19924;-74
2022/05/08 09:20:23;;;;;;;;;;;19.90;96.20;;;;;;5046462;28;20016;-74
2022/05/08 09:22:58;;;;;;;;;;;20.30;95.70;;;;;;5046715;28;20397;-74
2022/05/08 09:25:25;;;;;;;;;;;20.80;94.80;;;;;;5045798;28;19935;-74
2022/05/08 09:28:00;;;;;;;;;;;20.80;94.30;;;;;;5046677;28;19921;-74
2022/05/08 09:30:28;;;;;;;;;;;20.90;94.40;;;;;;5045912;28;20412;-74
2022/05/08 09:32:55;;;;;;;;;;;21.70;95.00;;;;;;5044015;28;19928;-74
2022/05/08 09:35:22;;;;;;;;;;;20.80;94.20;;;;;;5046062;28;19921;-74
2022/05/08 09:37:52;;;;;;;;;;;21.00;93.60;;;;;;5046092;28;19931;-74
2022/05/08 09:40:19;;;;;;;;;;;20.90;92.80;;;;;;5046425;28;19964;-74
2022/05/08 09:42:46;;;;;;;;;;;20.90;92.50;;;;;;5045454;28;20412;-74
2022/05/08 09:45:14;;;;;;;;;;;;;;;;;;5047010;28;19970;-73
2022/05/08 09:47:43;;;;;;;;;;;;;;;;;;5047854;28;19928;-74
2022/05/08 09:50:12;;;;;;;;;;;19.60;93.20;;;;;;5046522;28;20030;-75
2022/05/08 09:52:39;;;;;;;;;;;;;;;;;;5044025;28;19924;-74
2022/05/08 09:55:09;;;;;;;;;;;;;;;;;;5045985;28;20011;-73
2022/05/08 09:57:36;;;;;;;;;;;19.50;93.40;;;;;;5049710;28;19939;-73
2022/05/08 10:00:04;;;;;;;;;;;19.30;93.70;;;;;;5051081;28;19925;-73
2022/05/08 10:02:38;;;;;;;;;;;;;;;;;;5046056;28;19928;-72
2022/05/08 10:05:05;;;;;;;;;;;;;;;;;;5045258;28;19928;-74
2022/05/08 10:07:37;;;;;;;;;;;18.90;93.30;;;;;;5045368;28;20023;-74
2022/05/08 10:15:33;;;;;;;;;;;;;;;;;;5045162;28;20086;-73
2022/05/08 10:18:15;;;;;;;;;;;18.10;93.50;;;;;;5050068;28;19925;-75
2022/05/08 10:20:42;;;;;;;;;;;;;;;;;;5046774;28;20362;-74
2022/05/08 10:23:09;;;;;;;;;;;;;;;;;;5030579;28;21366;-75
2022/05/08 10:25:37;;;;;;;;;;;17.90;94.80;;;;;;5039545;28;19946;-75
2022/05/08 10:28:05;;;;;;;;;;;18.00;94.90;;;;;;5046316;28;20170;-75
2022/05/08 10:30:32;;;;;;;;;;;18.00;94.40;;;;;;5047982;28;20140;-75
2022/05/08 10:32:59;;;;;;;;;;;17.90;94.10;;;;;;5047396;28;19920;-73
2022/05/08 10:35:27;;;;;;;;;;;17.90;94.40;;;;;;5046592;28;19925;-74
2022/05/08 10:38:10;;;;;;;;;;;17.80;94.90;;;;;;5047657;28;19963;-73
2022/05/08 10:40:39;;;;;;;;;;;17.90;95.20;;;;;;5037402;28;19924;-74
2022/05/08 10:43:25;;;;;;;;;;;17.80;95.50;;;;;;5032262;28;19944;-74
2022/05/08 10:45:53;;;;;;;;;;;17.90;95.80;;;;;;5053082;28;20416;-74
2022/05/08 10:48:21;;;;;;;;;;;18.10;95.90;;;;;;5057090;28;19931;-73
2022/05/08 10:50:48;;;;;;;;;;;18.20;95.90;;;;;;5047152;28;20297;-73
2022/05/08 10:53:22;;;;;;;;;;;18.20;96.20;;;;;;5037393;28;19955;-73
2022/05/08 10:55:50;;;;;;;;;;;18.40;95.50;;;;;;5061798;28;19924;-73
2022/05/08 10:58:17;;;;;;;;;;;18.20;95.10;;;;;;5061811;28;19990;-74
2022/05/08 11:00:48;;;;;;;;;;;18.20;95.40;;;;;;5040448;28;19982;-74
2022/05/08 11:03:20;;;;;;;;;;;18.20;95.60;;;;;;5055892;28;19978;-74
2022/05/08 11:05:47;;;;;;;;;;;18.50;95.20;;;;;;5050559;28;20271;-74
2022/05/08 11:08:21;;;;;;;;;;;18.60;95.40;;;;;;5039298;28;19921;-75
2022/05/08 11:10:56;;;;;;;;;;;18.60;95.50;;;;;;5043122;28;20397;-77
2022/05/08 11:13:26;;;;;;;;;;;18.70;95.10;;;;;;5036722;28;19924;-75
2022/05/08 11:15:53;;;;;;;;;;;18.70;95.00;;;;;;5045512;28;19975;-76
2022/05/08 11:18:21;;;;;;;;;;;19.00;95.60;;;;;;5018352;28;19921;-77
2022/05/08 11:20:48;;;;;;;;;;;19.10;94.80;;;;;;5047853;28;19925;-76
2022/05/08 11:23:16;;;;;;;;;;;19.10;95.00;;;;;;5046270;28;19928;-74
2022/05/08 11:25:45;;;;;;;;;;;19.10;95.10;;;;;;5047579;28;19925;-75
2022/05/08 11:28:14;;;;;;;;;;;19.20;95.30;;;;;;5047856;28;20287;-75
2022/05/08 11:30:42;;;;;;;;;;;19.30;95.30;;;;;;5048861;28;19952;-75
2022/05/08 11:36:07;;;;;;;;;;;19.40;94.40;;;;;;5047633;28;20305;-76
2022/05/08 11:38:41;;;;;;;;;;;19.30;93.80;;;;;;5046884;28;19974;-75
2022/05/08 11:41:09;;;;;;;;;;;19.40;94.10;;;;;;5039912;28;20004;-73
2022/05/08 11:43:39;;;;;;;;;;;19.50;93.90;;;;;;5041625;28;19967;-73
2022/05/08 11:46:08;;;;;;;;;;;19.40;93.20;;;;;;5047846;28;20337;-73
2022/05/08 11:48:36;;;;;;;;;;;19.50;93.50;;;;;;5046802;28;20229;-75
2022/05/08 11:51:03;;;;;;;;;;;19.60;93.50;;;;;;5049482;28;19935;-74
2022/05/08 11:53:38;;;;;;;;;;;19.70;92.70;;;;;;5047689;28;19924;-75
2022/05/08 11:56:20;;;;;;;;;;;19.60;92.40;;;;;;5052155;28;19921;-74
2022/05/08 11:58:47;;;;;;;;;;;19.80;92.10;;;;;;5046813;28;19931;-74
2022/05/08 12:01:22;;;;;;;;;;;19.80;92.10;;;;;;5046855;28;19932;-74
2022/05/08 12:03:48;;;;;;;;;;;19.90;91.70;;;;;;5027515;28;19920;-75
2022/05/08 12:06:15;;;;;;;;;;;19.90;91.80;;;;;;5049047;28;19928;-75
2022/05/08 12:08:42;;;;;;;;;;;20.10;92.40;;;;;;5046806;28;20298;-75
2022/05/08 12:11:09;;;;;;;;;;;20.20;91.90;;;;;;5046994;28;19928;-75
2022/05/08 12:13:50;;;;;;;;;;;20.20;92.00;;;;;;5048778;28;19947;-74
2022/05/08 12:16:17;;;;;;;;;;;20.20;91.50;;;;;;5042955;28;19927;-74
2022/05/08 12:19:03;;;;;;;;;;;20.20;92.20;;;;;;5046393;28;19931;-76
2022/05/08 12:21:32;;;;;;;;;;;20.30;92.00;;;;;;5027317;28;20231;-75
2022/05/08 12:23:59;;;;;;;;;;;20.40;91.80;;;;;;5046410;28;19960;-76
2022/05/08 12:26:26;;;;;;;;;;;20.50;91.20;;;;;;5029214;28;19959;-77
2022/05/08 12:28:53;;;;;;;;;;;20.50;90.20;;;;;;5046481;28;19944;-77
2022/05/08 12:31:20;;;;;;;;;;;20.50;90.60;;;;;;5044946;28;19935;-78
2022/05/08 12:33:47;;;;;;;;;;;20.50;89.60;;;;;;5047507;28;19925;-76
2022/05/08 12:36:13;;;;;;;;;;;20.50;90.10;;;;;;5046903;28;20491;-77
2022/05/08 12:38:41;;;;;;;;;;;20.90;90.60;;;;;;5035255;28;20009;-75
2022/05/08 12:41:08;;;;;;;;;;;20.70;90.90;;;;;;5048281;28;20370;-75
2022/05/08 12:43:35;;;;;;;;;;;20.80;89.00;;;;;;5044095;28;19932;-75
2022/05/08 12:46:01;;;;;;;;;;;20.80;89.90;;;;;;5027125;28;19921;-76
2022/05/08 12:48:31;;;;;;;;;;;20.70;89.80;;;;;;5049273;28;19928;-76
2022/05/08 12:50:58;;;;;;;;;;;20.70;89.30;;;;;;5046802;28;19936;-76
2022/05/08 12:53:25;;;;;;;;;;;20.80;89.60;;;;;;5030830;28;19924;-76
2022/05/08 12:55:53;;;;;;;;;;;20.90;90.20;;;;;;5047073;28;19920;-76
2022/05/08 13:01:04;;;;;;;;;;;21.10;90.10;;;;;;5046803;28;20251;-76
2022/05/08 13:03:31;;;;;;;;;;;21.20;89.20;;;;;;5039873;28;20360;-75
2022/05/08 13:05:58;;;;;;;;;;;21.20;89.10;;;;;;5045028;28;20281;-76
2022/05/08 13:08:25;;;;;;;;;;;21.20;87.80;;;;;;5044018;28;19928;-75
2022/05/08 13:10:53;;;;;;;;;;;21.20;87.90;;;;;;5043854;28;19931;-77
2022/05/08 13:13:24;;;;;;;;;;;21.20;87.60;;;;;;5042817;28;19929;-76
2022/05/08 13:15:51;;;;;;;;;;;21.30;88.70;;;;;;5049161;28;19975;-75
2022/05/08 13:18:18;;;;;;;;;;;21.40;89.20;;;;;;5045710;28;20042;-76
2022/05/08 13:20:44;;;;;;;;;;;21.50;86.80;;;;;;5024494;28;19963;-77
2022/05/08 13:23:11;;;;;;;;;;;21.40;86.70;;;;;;5044823;28;19931;-76
2022/05/08 13:25:38;;;;;;;;;;;21.30;87.90;;;;;;5046919;28;20019;-77
2022/05/08 13:28:06;;;;;;;;;;;21.20;87.40;;;;;;5042813;28;19921;-76
2022/05/08 13:30:33;;;;;;;;;;;20.90;87.60;;;;;;5045555;28;19924;-77
2022/05/08 13:33:00;;;;;;;;;;;21.20;88.20;;;;;;5021935;28;19928;-75
2022/05/08 13:35:27;;;;;;;;;;;21.20;87.50;;;;;;5039537;28;19952;-75
2022/05/08 13:37:54;;;;;;;;;;;21.40;87.50;;;;;;5041255;28;20011;-75
2022/05/08 13:40:21;;;;;;;;;;;21.40;88.00;;;;;;5045640;28;19928;-77
2022/05/08 13:42:47;;;;;;;;;;;21.60;88.60;;;;;;5047158;28;19970;-77
2022/05/08 13:45:15;;;;;;;;;;;21.60;88.10;;;;;;5047275;28;19928;-73
2022/05/08 13:47:42;;;;;;;;;;;21.60;86.90;;;;;;5045043;28;19927;-76
2022/05/08 13:50:09;;;;;;;;;;;21.50;87.30;;;;;;5051912;28;20316;-77
2022/05/08 13:52:36;;;;;;;;;;;21.20;87.60;;;;;;5047148;28;19940;-74
2022/05/08 13:55:04;;;;;;;;;;;21.40;89.00;;;;;;5045323;28;19956;-78
2022/05/08 13:57:32;;;;;;;;;;;21.70;89.60;;;;;;5046733;28;19924;-75
2022/05/08 13:59:59;;;;;;;;;;;22.10;89.40;;;;;;5026359;28;19932;-75
2022/05/08 14:02:28;;;;;;;;;;;22.30;89.80;;;;;;5043427;28;20083;-76
2022/05/08 14:04:54;;;;;;;;;;;22.20;86.20;;;;;;5045828;28;19936;-75
2022/05/08 14:07:21;;;;;;;;;;;22.20;86.60;;;;;;5048581;28;19931;-74
2022/05/08 14:09:48;;;;;;;;;;;22.10;85.20;;;;;;5049514;28;19929;-77
2022/05/08 14:12:16;;;;;;;;;;;22.00;85.80;;;;;;5045575;28;19928;-76
2022/05/08 14:14:45;;;;;;;;;;;21.90;85.70;;;;;;5039785;28;19967;-76
2022/05/08 14:17:11;;;;;;;;;;;21.70;85.70;;;;;;5047845;28;19924;-78
2022/05/08 14:19:40;;;;;;;;;;;21.80;86.70;;;;;;5048764;28;19933;-75
2022/05/08 14:22:06;;;;;;;;;;;21.80;86.20;;;;;;5030209;28;19924;-75
2022/05/08 14:24:34;;;;;;;;;;;21.90;88.20;;;;;;5046709;28;19924;-75
2022/05/08 14:27:01;;;;;;;;;;;22.10;87.20;;;;;;5049349;28;19929;-75
2022/05/08 14:29:28;;;;;;;;;;;22.30;87.70;;;;;;5039797;28;20809;-75
2022/05/08 14:37:24;;;;;;;;;;;22.50;86.70;;;;;;5044141;28;20386;-76
2022/05/08 14:39:51;;;;;;;;;;;22.50;86.50;;;;;;5049387;28;19921;-76
2022/05/08 14:42:20;;;;;;;;;;;22.60;87.10;;;;;;5047844;28;19928;-77
2022/05/08 14:44:46;;;;;;;;;;;22.70;85.90;;;;;;5051503;28;19925;-77
2022/05/08 14:47:14;;;;;;;;;;;22.50;84.50;;;;;;5044346;28;20518;-76
2022/05/08 14:49:42;;;;;;;;;;;22.30;85.10;;;;;;5043100;28;20291;-75
2022/05/08 14:52:09;;;;;;;;;;;22.20;85.50;;;;;;5051478;28;20456;-76
2022/05/08 14:54:38;;;;;;;;;;;22.40;85.70;;;;;;5045606;28;19931;-74
2022/05/08 14:57:06;;;;;;;;;;;22.40;85.20;;;;;;5041668;28;19947;-74
2022/05/08 14:59:33;;;;;;;;;;;22.40;85.70;;;;;;5045655;28;19924;-75
2022/05/08 15:01:59;;;;;;;;;;;22.50;86.20;;;;;;5052398;28;20389;-78
2022/05/08 15:04:26;;;;;;;;;;;22.70;86.20;;;;;;5048029;28;19928;-75
2022/05/08 15:06:54;;;;;;;;;;;22.70;85.30;;;;;;5048468;28;19939;-76
2022/05/08 15:09:24;;;;;;;;;;;22.70;85.80;;;;;;5047531;28;19944;-76